TimeEDT,TemperatureF,Dew PointF,Humidity,Sea Level PressureIn,VisibilityMPH,Wind Direction,Wind SpeedMPH,Gust SpeedMPH,PrecipitationIn,Events,Conditions,WindDirDegrees,DateUTC
12:53 AM,26.1,15.1,63,29.99,10.0,ESE,8.1,-,N/A,,Overcast,110,2014-03-18 04:53:00
1:53 AM,26.1,15.1,63,30.00,10.0,ESE,5.8,-,N/A,,Overcast,120,2014-03-18 05:53:00
2:53 AM,26.1,15.1,63,30.02,10.0,Calm,Calm,-,N/A,,Overcast,0,2014-03-18 06:53:00
3:53 AM,26.1,16.0,66,30.01,10.0,ESE,5.8,-,N/A,,Overcast,120,2014-03-18 07:53:00
4:53 AM,26.1,15.1,63,30.01,10.0,ESE,3.5,-,N/A,,Overcast,120,2014-03-18 08:53:00
5:53 AM,26.1,17.1,69,30.00,10.0,East,5.8,-,N/A,,Overcast,100,2014-03-18 09:53:00
6:53 AM,24.1,17.1,75,30.01,10.0,ESE,6.9,-,N/A,,Clear,110,2014-03-18 10:53:00
7:53 AM,24.1,16.0,71,30.03,10.0,East,5.8,-,N/A,,Clear,90,2014-03-18 11:53:00
8:53 AM,25.0,18.0,75,30.04,10.0,East,6.9,-,N/A,,Clear,100,2014-03-18 12:53:00
9:53 AM,28.0,19.0,69,30.04,10.0,ESE,6.9,-,N/A,,Clear,110,2014-03-18 13:53:00
10:53 AM,30.9,21.0,67,30.04,10.0,ESE,4.6,-,N/A,,Clear,110,2014-03-18 14:53:00
11:53 AM,33.1,21.9,64,30.04,10.0,ENE,5.8,-,N/A,,Clear,70,2014-03-18 15:53:00
12:53 PM,35.1,23.0,61,30.04,10.0,ENE,5.8,-,N/A,,Clear,60,2014-03-18 16:53:00
1:53 PM,37.0,25.0,62,30.05,10.0,NE,6.9,-,N/A,,Clear,50,2014-03-18 17:53:00
2:53 PM,37.9,27.0,65,30.04,10.0,NNE,8.1,-,N/A,,Clear,30,2014-03-18 18:53:00
3:53 PM,39.0,28.0,65,30.03,10.0,NE,11.5,-,N/A,,Clear,40,2014-03-18 19:53:00
4:53 PM,37.0,27.0,67,30.04,10.0,NNE,10.4,-,N/A,,Clear,30,2014-03-18 20:53:00
5:53 PM,37.9,28.0,68,30.01,10.0,NE,11.5,-,N/A,,Clear,50,2014-03-18 21:53:00
6:53 PM,37.0,30.0,76,29.98,10.0,NNE,9.2,-,N/A,,Clear,30,2014-03-18 22:53:00
7:53 PM,37.9,28.0,68,29.98,10.0,East,10.4,-,N/A,,Clear,90,2014-03-18 23:53:00
8:53 PM,37.0,28.0,70,29.97,10.0,East,10.4,-,N/A,,Clear,100,2014-03-19 00:53:00
9:53 PM,36.0,28.0,73,29.94,10.0,East,11.5,-,N/A,,Clear,90,2014-03-19 01:53:00
10:53 PM,35.1,28.0,76,29.94,10.0,East,8.1,-,N/A,,Clear,90,2014-03-19 02:53:00
11:53 PM,34.0,28.0,79,29.92,10.0,ENE,6.9,-,N/A,,Clear,60,2014-03-19 03:53:00